sensor_id;sensor_type;location;lat;lon;timestamp;pressure;altitude;pressure_sealevel;temperature;humidity
32933;BME280;19444;50.518;10.870;2023-02-13T00:02:00;98587.94;;;2.02;100.00
32933;BME280;19444;50.518;10.870;2023-02-13T00:04:57;98590.34;;;1.97;100.00
32933;BME280;19444;50.518;10.870;2023-02-13T00:07:54;98586.09;;;2.03;100.00
32933;BME280;19444;50.518;10.870;2023-02-13T00:10:52;98579.19;;;2.08;100.00
32933;BME280;19444;50.518;10.870;2023-02-13T00:13:49;98576.34;;;2.03;100.00
32933;BME280;19444;50.518;10.870;2023-02-13T00:16:46;98586.09;;;2.09;100.00
32933;BME280;19444;50.518;10.870;2023-02-13T00:19:43;98578.16;;;1.96;100.00
32933;BME280;19444;50.518;10.870;2023-02-13T00:22:40;98574.50;;;1.97;100.00
32933;BME280;19444;50.518;10.870;2023-02-13T00:25:38;98576.31;;;1.90;100.00
32933;BME280;19444;50.518;10.870;2023-02-13T00:28:35;98573.47;;;1.98;100.00
32933;BME280;19444;50.518;10.870;2023-02-13T00:31:32;98573.69;;;1.96;100.00
32933;BME280;19444;50.518;10.870;2023-02-13T00:34:29;98573.88;;;1.88;100.00
32933;BME280;19444;50.518;10.870;2023-02-13T00:37:26;98567.56;;;1.89;100.00
32933;BME280;19444;50.518;10.870;2023-02-13T00:40:23;98574.28;;;1.85;100.00
32933;BME280;19444;50.518;10.870;2023-02-13T00:43:20;98570.41;;;1.88;100.00
32933;BME280;19444;50.518;10.870;2023-02-13T00:46:17;98574.28;;;1.98;100.00
32933;BME280;19444;50.518;10.870;2023-02-13T00:49:14;98581.19;;;1.86;100.00
32933;BME280;19444;50.518;10.870;2023-02-13T00:52:11;98568.56;;;1.88;100.00
32933;BME280;19444;50.518;10.870;2023-02-13T00:55:08;98568.16;;;1.91;100.00
32933;BME280;19444;50.518;10.870;2023-02-13T00:58:05;98570.81;;;1.98;100.00
32933;BME280;19444;50.518;10.870;2023-02-13T01:01:02;98572.25;;;1.94;100.00
32933;BME280;19444;50.518;10.870;2023-02-13T01:03:59;98581.63;;;2.16;100.00
32933;BME280;19444;50.518;10.870;2023-02-13T01:06:56;98575.72;;;2.08;100.00
32933;BME280;19444;50.518;10.870;2023-02-13T01:09:53;98580.41;;;2.06;100.00
32933;BME280;19444;50.518;10.870;2023-02-13T01:12:50;98583.22;;;1.97;100.00
32933;BME280;19444;50.518;10.870;2023-02-13T01:15:48;98576.94;;;1.98;100.00
32933;BME280;19444;50.518;10.870;2023-02-13T01:18:45;98569.44;;;2.02;100.00
32933;BME280;19444;50.518;10.870;2023-02-13T01:21:42;98572.47;;;2.06;100.00
32933;BME280;19444;50.518;10.870;2023-02-13T01:24:39;98573.28;;;2.13;100.00
32933;BME280;19444;50.518;10.870;2023-02-13T01:27:36;98567.38;;;2.04;100.00
32933;BME280;19444;50.518;10.870;2023-02-13T01:30:34;98576.91;;;1.92;100.00
32933;BME280;19444;50.518;10.870;2023-02-13T01:33:31;98566.75;;;1.89;100.00
32933;BME280;19444;50.518;10.870;2023-02-13T01:36:27;98570.44;;;1.94;100.00
32933;BME280;19444;50.518;10.870;2023-02-13T01:39:25;98566.16;;;2.07;100.00
32933;BME280;19444;50.518;10.870;2023-02-13T01:42:29;98568.81;;;1.93;100.00
32933;BME280;19444;50.518;10.870;2023-02-13T01:45:29;98568.00;;;2.06;100.00
32933;BME280;19444;50.518;10.870;2023-02-13T01:48:26;98565.13;;;2.01;100.00
32933;BME280;19444;50.518;10.870;2023-02-13T01:51:30;98571.25;;;1.95;100.00
32933;BME280;19444;50.518;10.870;2023-02-13T01:54:31;98572.03;;;1.89;100.00
32933;BME280;19444;50.518;10.870;2023-02-13T01:57:31;98561.03;;;1.92;100.00
32933;BME280;19444;50.518;10.870;2023-02-13T02:00:28;98565.13;;;2.01;100.00
32933;BME280;19444;50.518;10.870;2023-02-13T02:03:51;98552.72;;;1.95;100.00
32933;BME280;19444;50.518;10.870;2023-02-13T02:07:00;98556.38;;;2.00;100.00
32933;BME280;19444;50.518;10.870;2023-02-13T02:10:10;98557.00;;;1.96;100.00
32933;BME280;19444;50.518;10.870;2023-02-13T02:13:17;98553.75;;;1.94;100.00
32933;BME280;19444;50.518;10.870;2023-02-13T02:16:15;98551.72;;;1.96;100.00
32933;BME280;19444;50.518;10.870;2023-02-13T02:19:38;98545.41;;;1.84;100.00
32933;BME280;19444;50.518;10.870;2023-02-13T02:23:13;98548.47;;;1.94;100.00
32933;BME280;19444;50.518;10.870;2023-02-13T02:27:04;98554.13;;;1.91;100.00
32933;BME280;19444;50.518;10.870;2023-02-13T02:33:55;98551.91;;;1.94;100.00
32933;BME280;19444;50.518;10.870;2023-02-13T02:37:34;98554.16;;;1.97;100.00
32933;BME280;19444;50.518;10.870;2023-02-13T02:47:59;98551.72;;;2.03;100.00
32933;BME280;19444;50.518;10.870;2023-02-13T02:54:52;98549.09;;;2.03;100.00
32933;BME280;19444;50.518;10.870;2023-02-13T02:58:21;98549.91;;;2.03;100.00
32933;BME280;19444;50.518;10.870;2023-02-13T03:01:39;98542.56;;;2.05;100.00
32933;BME280;19444;50.518;10.870;2023-02-13T03:04:58;98547.44;;;1.95;100.00
32933;BME280;19444;50.518;10.870;2023-02-13T03:08:16;98545.81;;;1.94;100.00
32933;BME280;19444;50.518;10.870;2023-02-13T03:11:33;98548.66;;;1.99;100.00
32933;BME280;19444;50.518;10.870;2023-02-13T03:14:48;98548.66;;;1.86;100.00
32933;BME280;19444;50.518;10.870;2023-02-13T03:17:45;98540.94;;;1.97;100.00
32933;BME280;19444;50.518;10.870;2023-02-13T03:21:12;98547.63;;;2.00;100.00
32933;BME280;19444;50.518;10.870;2023-02-13T03:32:11;98553.13;;;1.92;100.00
32933;BME280;19444;50.518;10.870;2023-02-13T03:35:36;98546.84;;;2.06;100.00
32933;BME280;19444;50.518;10.870;2023-02-13T03:42:44;98552.13;;;2.06;100.00
32933;BME280;19444;50.518;10.870;2023-02-13T03:45:45;98551.28;;;1.99;100.00
32933;BME280;19444;50.518;10.870;2023-02-13T03:48:50;98552.31;;;1.98;100.00
32933;BME280;19444;50.518;10.870;2023-02-13T03:55:41;98553.56;;;2.02;100.00
32933;BME280;19444;50.518;10.870;2023-02-13T03:58:58;98547.03;;;2.05;100.00
32933;BME280;19444;50.518;10.870;2023-02-13T04:02:16;98561.47;;;1.95;100.00
32933;BME280;19444;50.518;10.870;2023-02-13T04:05:21;98557.41;;;1.93;100.00
32933;BME280;19444;50.518;10.870;2023-02-13T04:08:20;98553.75;;;2.07;100.00
32933;BME280;19444;50.518;10.870;2023-02-13T04:14:59;98557.78;;;1.90;100.00
32933;BME280;19444;50.518;10.870;2023-02-13T04:18:12;98554.53;;;2.01;100.00
32933;BME280;19444;50.518;10.870;2023-02-13T04:21:10;98544.38;;;1.98;100.00
32933;BME280;19444;50.518;10.870;2023-02-13T04:24:08;98550.09;;;2.02;100.00
32933;BME280;19444;50.518;10.870;2023-02-13T04:27:05;98540.13;;;1.97;100.00
32933;BME280;19444;50.518;10.870;2023-02-13T04:30:03;98543.56;;;1.97;100.00
32933;BME280;19444;50.518;10.870;2023-02-13T04:33:00;98546.19;;;1.91;100.00
32933;BME280;19444;50.518;10.870;2023-02-13T04:35:57;98536.66;;;1.96;100.00
32933;BME280;19444;50.518;10.870;2023-02-13T04:38:53;98542.97;;;2.15;100.00
32933;BME280;19444;50.518;10.870;2023-02-13T04:41:50;98542.34;;;2.00;100.00
32933;BME280;19444;50.518;10.870;2023-02-13T04:44:47;98548.66;;;1.99;100.00
32933;BME280;19444;50.518;10.870;2023-02-13T04:47:52;98548.66;;;1.92;100.00
32933;BME280;19444;50.518;10.870;2023-02-13T04:50:50;98553.53;;;1.89;100.00
32933;BME280;19444;50.518;10.870;2023-02-13T04:53:46;98545.38;;;1.90;100.00
32933;BME280;19444;50.518;10.870;2023-02-13T04:56:43;98540.53;;;1.94;100.00
32933;BME280;19444;50.518;10.870;2023-02-13T04:59:41;98536.66;;;1.90;100.00
32933;BME280;19444;50.518;10.870;2023-02-13T05:02:37;98539.13;;;2.11;100.00
32933;BME280;19444;50.518;10.870;2023-02-13T05:05:35;98536.06;;;1.94;100.00
32933;BME280;19444;50.518;10.870;2023-02-13T05:08:33;98542.78;;;2.04;100.00
32933;BME280;19444;50.518;10.870;2023-02-13T05:11:29;98539.31;;;1.96;100.00
32933;BME280;19444;50.518;10.870;2023-02-13T05:14:26;98542.78;;;2.04;100.00
32933;BME280;19444;50.518;10.870;2023-02-13T05:17:23;98545.41;;;2.04;100.00
32933;BME280;19444;50.518;10.870;2023-02-13T05:20:23;98542.34;;;2.00;100.00
32933;BME280;19444;50.518;10.870;2023-02-13T05:23:20;98542.97;;;1.95;100.00
32933;BME280;19444;50.518;10.870;2023-02-13T05:26:20;98546.63;;;2.01;100.00
32933;BME280;19444;50.518;10.870;2023-02-13T05:29:17;98551.09;;;1.87;100.00
32933;BME280;19444;50.518;10.870;2023-02-13T05:32:14;98544.16;;;1.80;100.00
32933;BME280;19444;50.518;10.870;2023-02-13T05:35:11;98548.22;;;1.76;100.00
32933;BME280;19444;50.518;10.870;2023-02-13T05:38:08;98550.88;;;1.76;100.00
32933;BME280;19444;50.518;10.870;2023-02-13T05:41:05;98555.97;;;1.90;100.00
32933;BME280;19444;50.518;10.870;2023-02-13T05:44:03;98555.59;;;1.93;100.00
32933;BME280;19444;50.518;10.870;2023-02-13T05:46:59;98549.47;;;1.99;100.00
32933;BME280;19444;50.518;10.870;2023-02-13T05:49:56;98549.47;;;1.93;100.00
32933;BME280;19444;50.518;10.870;2023-02-13T05:52:53;98553.53;;;1.89;100.00
32933;BME280;19444;50.518;10.870;2023-02-13T05:55:50;98560.00;;;1.73;100.00
32933;BME280;19444;50.518;10.870;2023-02-13T05:58:51;98554.94;;;1.78;100.00
32933;BME280;19444;50.518;10.870;2023-02-13T06:01:48;98566.72;;;1.82;100.00
32933;BME280;19444;50.518;10.870;2023-02-13T06:04:45;98563.28;;;1.75;100.00
32933;BME280;19444;50.518;10.870;2023-02-13T06:07:42;98571.38;;;1.74;100.00
32933;BME280;19444;50.518;10.870;2023-02-13T06:10:39;98582.19;;;1.79;100.00
32933;BME280;19444;50.518;10.870;2023-02-13T06:13:36;98571.41;;;1.80;100.00
32933;BME280;19444;50.518;10.870;2023-02-13T06:16:36;98568.97;;;1.79;100.00
32933;BME280;19444;50.518;10.870;2023-02-13T06:19:33;98563.88;;;1.77;100.00
32933;BME280;19444;50.518;10.870;2023-02-13T06:22:30;98566.72;;;1.76;100.00
32933;BME280;19444;50.518;10.870;2023-02-13T06:25:28;98574.88;;;1.74;100.00
32933;BME280;19444;50.518;10.870;2023-02-13T06:28:25;98574.47;;;1.77;100.00
32933;BME280;19444;50.518;10.870;2023-02-13T06:31:22;98564.28;;;1.81;100.00
32933;BME280;19444;50.518;10.870;2023-02-13T06:34:19;98568.34;;;1.77;100.00
32933;BME280;19444;50.518;10.870;2023-02-13T06:37:16;98578.47;;;1.60;100.00
32933;BME280;19444;50.518;10.870;2023-02-13T06:40:15;98574.84;;;1.67;100.00
32933;BME280;19444;50.518;10.870;2023-02-13T06:43:13;98575.03;;;1.59;100.00
32933;BME280;19444;50.518;10.870;2023-02-13T06:46:10;98581.91;;;1.54;100.00
32933;BME280;19444;50.518;10.870;2023-02-13T06:49:08;98584.50;;;1.40;100.00
32933;BME280;19444;50.518;10.870;2023-02-13T06:52:05;98592.84;;;1.37;100.00
32933;BME280;19444;50.518;10.870;2023-02-13T06:55:03;98593.69;;;1.51;100.00
32933;BME280;19444;50.518;10.870;2023-02-13T06:58:00;98587.41;;;1.59;100.00
32933;BME280;19444;50.518;10.870;2023-02-13T07:00:57;98591.50;;;1.68;100.00
32933;BME280;19444;50.518;10.870;2023-02-13T07:03:55;98596.97;;;1.60;100.00
32933;BME280;19444;50.518;10.870;2023-02-13T07:06:54;98591.69;;;1.60;100.00
32933;BME280;19444;50.518;10.870;2023-02-13T07:09:52;98591.31;;;1.69;100.00
32933;BME280;19444;50.518;10.870;2023-02-13T07:12:49;98599.03;;;1.71;100.00
32933;BME280;19444;50.518;10.870;2023-02-13T07:16:00;98605.38;;;1.77;100.00
32933;BME280;19444;50.518;10.870;2023-02-13T07:18:58;98603.13;;;1.80;100.00
32933;BME280;19444;50.518;10.870;2023-02-13T07:21:55;98621.44;;;1.88;100.00
32933;BME280;19444;50.518;10.870;2023-02-13T07:24:51;98611.91;;;2.00;100.00
32933;BME280;19444;50.518;10.870;2023-02-13T07:27:48;98603.38;;;2.05;100.00
32933;BME280;19444;50.518;10.870;2023-02-13T07:30:45;98609.69;;;2.04;100.00
32933;BME280;19444;50.518;10.870;2023-02-13T07:33:42;98604.41;;;2.17;100.00
32933;BME280;19444;50.518;10.870;2023-02-13T07:36:39;98606.06;;;2.32;100.00
32933;BME280;19444;50.518;10.870;2023-02-13T07:39:36;98603.44;;;2.38;100.00
32933;BME280;19444;50.518;10.870;2023-02-13T07:42:34;98606.91;;;2.39;100.00
32933;BME280;19444;50.518;10.870;2023-02-13T07:45:31;98607.28;;;2.42;100.00
32933;BME280;19444;50.518;10.870;2023-02-13T07:48:28;98610.75;;;2.49;100.00
32933;BME280;19444;50.518;10.870;2023-02-13T07:51:27;98610.75;;;2.43;100.00
32933;BME280;19444;50.518;10.870;2023-02-13T07:54:24;98607.88;;;2.64;100.00
32933;BME280;19444;50.518;10.870;2023-02-13T07:57:21;98603.63;;;2.76;100.00
32933;BME280;19444;50.518;10.870;2023-02-13T08:00:19;98590.34;;;2.90;100.00
32933;BME280;19444;50.518;10.870;2023-02-13T08:03:16;98601.09;;;3.01;100.00
32933;BME280;19444;50.518;10.870;2023-02-13T08:06:13;98598.06;;;2.91;100.00
32933;BME280;19444;50.518;10.870;2023-02-13T08:09:20;98599.91;;;3.04;100.00
32933;BME280;19444;50.518;10.870;2023-02-13T08:12:36;98591.75;;;3.12;100.00
32933;BME280;19444;50.518;10.870;2023-02-13T08:15:33;98592.94;;;3.16;100.00
32933;BME280;19444;50.518;10.870;2023-02-13T08:18:30;98597.63;;;3.21;100.00
32933;BME280;19444;50.518;10.870;2023-02-13T08:21:27;98599.84;;;3.17;100.00
32933;BME280;19444;50.518;10.870;2023-02-13T08:24:24;98591.06;;;3.30;100.00
32933;BME280;19444;50.518;10.870;2023-02-13T08:27:21;98594.78;;;3.16;100.00
32933;BME280;19444;50.518;10.870;2023-02-13T08:30:18;98587.78;;;3.28;100.00
32933;BME280;19444;50.518;10.870;2023-02-13T08:33:15;98589.16;;;3.43;100.00
32933;BME280;19444;50.518;10.870;2023-02-13T08:36:12;98588.81;;;3.33;100.00
32933;BME280;19444;50.518;10.870;2023-02-13T08:39:09;98596.16;;;3.31;100.00
32933;BME280;19444;50.518;10.870;2023-02-13T08:42:06;98599.59;;;3.38;100.00
32933;BME280;19444;50.518;10.870;2023-02-13T08:45:04;98593.53;;;3.25;100.00
32933;BME280;19444;50.518;10.870;2023-02-13T08:48:01;98596.31;;;3.36;100.00
32933;BME280;19444;50.518;10.870;2023-02-13T08:51:04;98602.56;;;3.62;100.00
32933;BME280;19444;50.518;10.870;2023-02-13T08:54:00;98592.75;;;3.62;100.00
32933;BME280;19444;50.518;10.870;2023-02-13T08:56:57;98596.88;;;3.58;100.00
32933;BME280;19444;50.518;10.870;2023-02-13T08:59:54;98596.75;;;3.85;100.00
32933;BME280;19444;50.518;10.870;2023-02-13T09:02:51;98600.38;;;3.90;100.00
32933;BME280;19444;50.518;10.870;2023-02-13T09:05:48;98601.81;;;3.86;100.00
32933;BME280;19444;50.518;10.870;2023-02-13T09:08:45;98605.63;;;3.97;100.00
32933;BME280;19444;50.518;10.870;2023-02-13T09:11:42;98610.81;;;4.17;100.00
32933;BME280;19444;50.518;10.870;2023-02-13T09:14:39;98608.19;;;4.10;100.00
32933;BME280;19444;50.518;10.870;2023-02-13T09:17:36;98613.16;;;4.00;100.00
32933;BME280;19444;50.518;10.870;2023-02-13T09:20:33;98617.41;;;4.08;100.00
32933;BME280;19444;50.518;10.870;2023-02-13T09:23:34;98618.19;;;4.15;100.00
32933;BME280;19444;50.518;10.870;2023-02-13T09:26:31;98622.91;;;4.38;100.00
32933;BME280;19444;50.518;10.870;2023-02-13T09:29:29;98610.63;;;4.43;100.00
32933;BME280;19444;50.518;10.870;2023-02-13T09:32:27;98617.03;;;4.61;100.00
32933;BME280;19444;50.518;10.870;2023-02-13T09:35:24;98613.16;;;4.56;100.00
32933;BME280;19444;50.518;10.870;2023-02-13T09:38:21;98605.38;;;4.62;100.00
32933;BME280;19444;50.518;10.870;2023-02-13T09:41:27;98612.13;;;4.82;100.00
32933;BME280;19444;50.518;10.870;2023-02-13T09:44:40;98618.72;;;4.98;100.00
32933;BME280;19444;50.518;10.870;2023-02-13T09:47:41;98613.75;;;4.83;100.00
32933;BME280;19444;50.518;10.870;2023-02-13T09:50:38;98612.00;;;4.77;100.00
32933;BME280;19444;50.518;10.870;2023-02-13T09:53:35;98621.94;;;4.82;100.00
32933;BME280;19444;50.518;10.870;2023-02-13T09:56:51;98620.66;;;5.09;100.00
32933;BME280;19444;50.518;10.870;2023-02-13T10:00:05;98619.88;;;5.27;100.00
32933;BME280;19444;50.518;10.870;2023-02-13T10:03:27;98618.91;;;5.03;100.00
32933;BME280;19444;50.518;10.870;2023-02-13T10:06:34;98610.09;;;5.76;100.00
32933;BME280;19444;50.518;10.870;2023-02-13T10:10:08;98594.59;;;8.52;100.00
32933;BME280;19444;50.518;10.870;2023-02-13T10:16:52;98589.75;;;7.24;100.00
32933;BME280;19444;50.518;10.870;2023-02-13T10:19:58;98589.00;;;8.54;100.00
32933;BME280;19444;50.518;10.870;2023-02-13T10:23:29;98571.94;;;11.57;100.00
32933;BME280;19444;50.518;10.870;2023-02-13T10:26:31;98562.69;;;11.32;100.00
32933;BME280;19444;50.518;10.870;2023-02-13T10:29:51;98570.03;;;9.77;100.00
32933;BME280;19444;50.518;10.870;2023-02-13T10:33:31;98569.47;;;12.48;100.00
32933;BME280;19444;50.518;10.870;2023-02-13T10:36:34;98562.38;;;13.24;100.00
32933;BME280;19444;50.518;10.870;2023-02-13T10:39:33;98559.66;;;13.34;100.00
32933;BME280;19444;50.518;10.870;2023-02-13T10:42:43;98557.03;;;11.81;100.00
32933;BME280;19444;50.518;10.870;2023-02-13T10:45:48;98555.13;;;10.72;100.00
32933;BME280;19444;50.518;10.870;2023-02-13T10:49:25;98559.53;;;10.88;100.00
32933;BME280;19444;50.518;10.870;2023-02-13T10:59:48;98536.78;;;11.68;100.00
32933;BME280;19444;50.518;10.870;2023-02-13T11:02:49;98534.13;;;11.79;100.00
32933;BME280;19444;50.518;10.870;2023-02-13T11:05:46;98533.28;;;11.58;100.00
32933;BME280;19444;50.518;10.870;2023-02-13T11:08:46;98532.28;;;13.01;100.00
32933;BME280;19444;50.518;10.870;2023-02-13T11:11:44;98533.69;;;12.33;100.00
32933;BME280;19444;50.518;10.870;2023-02-13T11:15:04;98518.63;;;12.57;100.00
32933;BME280;19444;50.518;10.870;2023-02-13T11:18:17;98526.19;;;12.35;100.00
32933;BME280;19444;50.518;10.870;2023-02-13T11:21:30;98524.44;;;10.58;100.00
32933;BME280;19444;50.518;10.870;2023-02-13T11:24:30;98523.44;;;9.51;100.00
32933;BME280;19444;50.518;10.870;2023-02-13T11:27:33;98534.19;;;8.90;100.00
32933;BME280;19444;50.518;10.870;2023-02-13T11:30:36;98551.72;;;8.64;100.00
32933;BME280;19444;50.518;10.870;2023-02-13T11:33:34;98533.06;;;9.74;100.00
32933;BME280;19444;50.518;10.870;2023-02-13T11:36:33;98521.50;;;11.64;100.00
32933;BME280;19444;50.518;10.870;2023-02-13T11:39:30;98520.91;;;11.52;100.00
32933;BME280;19444;50.518;10.870;2023-02-13T11:42:34;98517.16;;;10.21;100.00
32933;BME280;19444;50.518;10.870;2023-02-13T11:45:31;98532.16;;;9.19;100.00
32933;BME280;19444;50.518;10.870;2023-02-13T11:48:28;98521.16;;;9.16;100.00
32933;BME280;19444;50.518;10.870;2023-02-13T11:51:44;98528.97;;;8.62;100.00
32933;BME280;19444;50.518;10.870;2023-02-13T11:54:43;98505.94;;;11.71;100.00
32933;BME280;19444;50.518;10.870;2023-02-13T11:57:41;98514.56;;;9.01;100.00
32933;BME280;19444;50.518;10.870;2023-02-13T12:00:39;98512.56;;;8.36;100.00
32933;BME280;19444;50.518;10.870;2023-02-13T12:03:39;98504.47;;;9.30;100.00
32933;BME280;19444;50.518;10.870;2023-02-13T12:06:36;98497.72;;;11.20;100.00
32933;BME280;19444;50.518;10.870;2023-02-13T12:09:39;98496.31;;;11.85;100.00
32933;BME280;19444;50.518;10.870;2023-02-13T12:13:26;98497.78;;;10.09;100.00
32933;BME280;19444;50.518;10.870;2023-02-13T12:16:51;98505.59;;;8.91;100.00
32933;BME280;19444;50.518;10.870;2023-02-13T12:19:50;98504.22;;;8.88;100.00
32933;BME280;19444;50.518;10.870;2023-02-13T12:23:01;98497.88;;;8.55;100.00
32933;BME280;19444;50.518;10.870;2023-02-13T12:26:38;98483.31;;;11.47;100.00
32933;BME280;19444;50.518;10.870;2023-02-13T12:29:59;98499.06;;;9.03;100.00
32933;BME280;19444;50.518;10.870;2023-02-13T12:33:44;98494.31;;;8.50;100.00
32933;BME280;19444;50.518;10.870;2023-02-13T12:40:26;98505.66;;;8.23;100.00
32933;BME280;19444;50.518;10.870;2023-02-13T12:47:00;98488.38;;;8.31;100.00
32933;BME280;19444;50.518;10.870;2023-02-13T12:50:38;98485.00;;;8.69;100.00
32933;BME280;19444;50.518;10.870;2023-02-13T12:54:01;98483.63;;;8.16;100.00
32933;BME280;19444;50.518;10.870;2023-02-13T13:00:34;98480.44;;;7.69;100.00
32933;BME280;19444;50.518;10.870;2023-02-13T13:04:19;98482.69;;;7.60;100.00
32933;BME280;19444;50.518;10.870;2023-02-13T13:07:49;98485.00;;;8.19;100.00
32933;BME280;19444;50.518;10.870;2023-02-13T13:14:48;98455.13;;;10.76;100.00
32933;BME280;19444;50.518;10.870;2023-02-13T13:18:11;98454.78;;;11.20;100.00
32933;BME280;19444;50.518;10.870;2023-02-13T13:21:38;98452.69;;;11.48;100.00
32933;BME280;19444;50.518;10.870;2023-02-13T13:25:18;98451.53;;;11.13;100.00
32933;BME280;19444;50.518;10.870;2023-02-13T13:28:25;98448.09;;;10.65;100.00
32933;BME280;19444;50.518;10.870;2023-02-13T13:31:26;98447.75;;;11.09;100.00
32933;BME280;19444;50.518;10.870;2023-02-13T13:34:25;98449.56;;;10.93;100.00
32933;BME280;19444;50.518;10.870;2023-02-13T13:37:36;98443.22;;;11.20;100.00
32933;BME280;19444;50.518;10.870;2023-02-13T13:48:23;98448.22;;;10.91;100.00
32933;BME280;19444;50.518;10.870;2023-02-13T13:51:23;98447.69;;;10.94;100.00
32933;BME280;19444;50.518;10.870;2023-02-13T13:54:24;98443.97;;;11.00;100.00
32933;BME280;19444;50.518;10.870;2023-02-13T14:00:36;98457.38;;;9.29;100.00
32933;BME280;19444;50.518;10.870;2023-02-13T14:03:35;98451.00;;;9.08;100.00
32933;BME280;19444;50.518;10.870;2023-02-13T14:09:42;98448.31;;;8.65;100.00
32933;BME280;19444;50.518;10.870;2023-02-13T14:13:03;98433.03;;;8.82;100.00
32933;BME280;19444;50.518;10.870;2023-02-13T14:16:10;98442.28;;;8.36;100.00
32933;BME280;19444;50.518;10.870;2023-02-13T14:19:36;98443.34;;;8.18;100.00
32933;BME280;19444;50.518;10.870;2023-02-13T14:22:35;98443.75;;;8.10;100.00
32933;BME280;19444;50.518;10.870;2023-02-13T14:25:35;98440.28;;;8.65;100.00
32933;BME280;19444;50.518;10.870;2023-02-13T14:28:32;98448.81;;;8.62;100.00
32933;BME280;19444;50.518;10.870;2023-02-13T14:32:00;98436.44;;;8.22;100.00
32933;BME280;19444;50.518;10.870;2023-02-13T14:35:19;98441.56;;;7.90;100.00
32933;BME280;19444;50.518;10.870;2023-02-13T14:38:23;98439.59;;;7.85;100.00
32933;BME280;19444;50.518;10.870;2023-02-13T14:41:43;98437.91;;;7.79;100.00
32933;BME280;19444;50.518;10.870;2023-02-13T14:44:51;98433.44;;;7.85;100.00
32933;BME280;19444;50.518;10.870;2023-02-13T14:47:53;98426.25;;;7.52;100.00
32933;BME280;19444;50.518;10.870;2023-02-13T14:50:54;98433.84;;;7.03;100.00
32933;BME280;19444;50.518;10.870;2023-02-13T14:54:11;98433.66;;;7.33;100.00
32933;BME280;19444;50.518;10.870;2023-02-13T14:57:26;98433.81;;;6.86;100.00
32933;BME280;19444;50.518;10.870;2023-02-13T15:00:56;98427.00;;;6.67;100.00
32933;BME280;19444;50.518;10.870;2023-02-13T15:04:15;98427.31;;;6.82;100.00
32933;BME280;19444;50.518;10.870;2023-02-13T15:07:18;98425.69;;;6.81;100.00
32933;BME280;19444;50.518;10.870;2023-02-13T15:10:46;98424.94;;;6.57;100.00
32933;BME280;19444;50.518;10.870;2023-02-13T15:13:43;98423.31;;;6.56;100.00
32933;BME280;19444;50.518;10.870;2023-02-13T15:16:40;98418.66;;;6.63;100.00
32933;BME280;19444;50.518;10.870;2023-02-13T15:19:43;98423.59;;;6.31;100.00
32933;BME280;19444;50.518;10.870;2023-02-13T15:22:45;98418.72;;;6.05;100.00
32933;BME280;19444;50.518;10.870;2023-02-13T15:25:42;98429.34;;;5.93;100.00
32933;BME280;19444;50.518;10.870;2023-02-13T15:28:40;98428.56;;;5.62;100.00
32933;BME280;19444;50.518;10.870;2023-02-13T15:31:37;98425.72;;;5.34;100.00
32933;BME280;19444;50.518;10.870;2023-02-13T15:34:34;98434.69;;;5.51;100.00
32933;BME280;19444;50.518;10.870;2023-02-13T15:37:31;98436.53;;;5.21;100.00
32933;BME280;19444;50.518;10.870;2023-02-13T15:40:32;98439.13;;;5.39;100.00
32933;BME280;19444;50.518;10.870;2023-02-13T15:43:44;98428.44;;;5.16;100.00
32933;BME280;19444;50.518;10.870;2023-02-13T15:46:47;98438.78;;;5.05;100.00
32933;BME280;19444;50.518;10.870;2023-02-13T15:49:46;98438.22;;;5.03;100.00
32933;BME280;19444;50.518;10.870;2023-02-13T15:52:43;98433.75;;;4.67;100.00
32933;BME280;19444;50.518;10.870;2023-02-13T15:55:41;98437.28;;;4.61;100.00
32933;BME280;19444;50.518;10.870;2023-02-13T15:58:38;98440.56;;;4.38;100.00
32933;BME280;19444;50.518;10.870;2023-02-13T16:01:35;98452.19;;;4.19;100.00
32933;BME280;19444;50.518;10.870;2023-02-13T16:04:32;98438.47;;;4.04;100.00
32933;BME280;19444;50.518;10.870;2023-02-13T16:07:29;98444.91;;;3.89;100.00
32933;BME280;19444;50.518;10.870;2023-02-13T16:10:33;98447.50;;;3.71;100.00
32933;BME280;19444;50.518;10.870;2023-02-13T16:13:30;98433.53;;;3.82;100.00
32933;BME280;19444;50.518;10.870;2023-02-13T16:16:29;98439.59;;;3.33;100.00
32933;BME280;19444;50.518;10.870;2023-02-13T16:19:49;98438.13;;;3.37;100.00
32933;BME280;19444;50.518;10.870;2023-02-13T16:22:54;98437.44;;;3.17;100.00
32933;BME280;19444;50.518;10.870;2023-02-13T16:25:52;98449.50;;;3.12;100.00
32933;BME280;19444;50.518;10.870;2023-02-13T16:28:56;98456.00;;;3.10;100.00
32933;BME280;19444;50.518;10.870;2023-02-13T16:32:04;98450.41;;;2.93;100.00
32933;BME280;19444;50.518;10.870;2023-02-13T16:35:39;98452.06;;;2.81;100.00
32933;BME280;19444;50.518;10.870;2023-02-13T16:38:46;98456.75;;;2.85;100.00
32933;BME280;19444;50.518;10.870;2023-02-13T16:41:43;98461.09;;;2.67;100.00
32933;BME280;19444;50.518;10.870;2023-02-13T16:44:40;98468.72;;;2.95;100.00
32933;BME280;19444;50.518;10.870;2023-02-13T16:47:37;98468.22;;;2.60;100.00
32933;BME280;19444;50.518;10.870;2023-02-13T16:50:34;98471.13;;;2.38;100.00
32933;BME280;19444;50.518;10.870;2023-02-13T16:53:31;98468.44;;;2.51;100.00
32933;BME280;19444;50.518;10.870;2023-02-13T16:56:40;98470.94;;;2.33;100.00
32933;BME280;19444;50.518;10.870;2023-02-13T17:02:56;98478.09;;;2.13;100.00
32933;BME280;19444;50.518;10.870;2023-02-13T17:05:53;98476.44;;;2.18;100.00
32933;BME280;19444;50.518;10.870;2023-02-13T17:08:53;98476.84;;;1.89;100.00
32933;BME280;19444;50.518;10.870;2023-02-13T17:11:51;98483.59;;;1.85;100.00
32933;BME280;19444;50.518;10.870;2023-02-13T17:14:48;98485.78;;;1.61;100.00